sensor_id;sensor_type;location;lat;lon;timestamp;temperature;humidity
1680;DHT22;838;51.794;12.258;2022-07-29T00:00:05;17.60;9.40
1680;DHT22;838;51.794;12.258;2022-07-29T00:02:32;17.60;9.00
1680;DHT22;838;51.794;12.258;2022-07-29T00:04:58;17.60;9.10
1680;DHT22;838;51.794;12.258;2022-07-29T00:07:24;17.40;8.50
1680;DHT22;838;51.794;12.258;2022-07-29T00:09:50;17.50;9.30
1680;DHT22;838;51.794;12.258;2022-07-29T00:12:16;17.60;9.40
1680;DHT22;838;51.794;12.258;2022-07-29T00:14:42;17.70;9.00
1680;DHT22;838;51.794;12.258;2022-07-29T00:17:08;17.70;8.70
1680;DHT22;838;51.794;12.258;2022-07-29T00:19:34;17.80;7.80
1680;DHT22;838;51.794;12.258;2022-07-29T00:22:00;17.80;7.60
1680;DHT22;838;51.794;12.258;2022-07-29T00:24:26;18.00;6.80
1680;DHT22;838;51.794;12.258;2022-07-29T00:26:52;18.10;5.70
1680;DHT22;838;51.794;12.258;2022-07-29T00:29:18;18.10;5.20
1680;DHT22;838;51.794;12.258;2022-07-29T00:31:44;18.10;5.00
1680;DHT22;838;51.794;12.258;2022-07-29T00:34:10;18.20;5.90
1680;DHT22;838;51.794;12.258;2022-07-29T00:36:55;18.30;5.00
1680;DHT22;838;51.794;12.258;2022-07-29T00:39:21;18.30;3.20
1680;DHT22;838;51.794;12.258;2022-07-29T00:41:47;18.20;1.00
1680;DHT22;838;51.794;12.258;2022-07-29T00:44:13;18.10;3.60
1680;DHT22;838;51.794;12.258;2022-07-29T00:46:38;18.40;1.90
1680;DHT22;838;51.794;12.258;2022-07-29T00:49:04;18.50;2.50
1680;DHT22;838;51.794;12.258;2022-07-29T00:51:30;18.60;2.30
1680;DHT22;838;51.794;12.258;2022-07-29T00:53:57;18.70;3.30
1680;DHT22;838;51.794;12.258;2022-07-29T00:56:22;18.60;4.50
1680;DHT22;838;51.794;12.258;2022-07-29T00:58:50;18.50;1.00
1680;DHT22;838;51.794;12.258;2022-07-29T01:01:16;18.50;1.10
1680;DHT22;838;51.794;12.258;2022-07-29T01:03:42;18.50;1.10
1680;DHT22;838;51.794;12.258;2022-07-29T01:06:08;18.40;1.00
1680;DHT22;838;51.794;12.258;2022-07-29T01:08:35;18.40;2.20
1680;DHT22;838;51.794;12.258;2022-07-29T01:11:02;18.40;3.80
1680;DHT22;838;51.794;12.258;2022-07-29T01:13:29;18.40;1.00
1680;DHT22;838;51.794;12.258;2022-07-29T01:15:59;18.40;1.00
1680;DHT22;838;51.794;12.258;2022-07-29T01:18:41;18.30;1.00
1680;DHT22;838;51.794;12.258;2022-07-29T01:24:30;18.40;1.00
1680;DHT22;838;51.794;12.258;2022-07-29T01:27:06;18.30;1.00
1680;DHT22;838;51.794;12.258;2022-07-29T01:29:45;18.20;1.00
1680;DHT22;838;51.794;12.258;2022-07-29T01:32:22;18.20;1.00
1680;DHT22;838;51.794;12.258;2022-07-29T01:37:26;18.10;1.00
1680;DHT22;838;51.794;12.258;2022-07-29T01:39:56;18.10;1.00
1680;DHT22;838;51.794;12.258;2022-07-29T01:42:44;18.10;1.00
1680;DHT22;838;51.794;12.258;2022-07-29T01:50:14;17.80;2.90
1680;DHT22;838;51.794;12.258;2022-07-29T01:52:56;17.90;2.50
1680;DHT22;838;51.794;12.258;2022-07-29T01:55:28;17.90;2.90
1680;DHT22;838;51.794;12.258;2022-07-29T01:57:56;17.70;3.20
1680;DHT22;838;51.794;12.258;2022-07-29T02:00:23;17.70;3.70
1680;DHT22;838;51.794;12.258;2022-07-29T02:02:50;17.60;3.60
1680;DHT22;838;51.794;12.258;2022-07-29T02:05:21;17.70;3.90
1680;DHT22;838;51.794;12.258;2022-07-29T02:07:48;17.60;3.90
1680;DHT22;838;51.794;12.258;2022-07-29T02:10:15;17.60;4.70
1680;DHT22;838;51.794;12.258;2022-07-29T02:12:43;17.60;4.70
1680;DHT22;838;51.794;12.258;2022-07-29T02:15:10;17.70;4.40
1680;DHT22;838;51.794;12.258;2022-07-29T02:17:50;17.70;3.40
1680;DHT22;838;51.794;12.258;2022-07-29T02:20:16;17.80;2.90
1680;DHT22;838;51.794;12.258;2022-07-29T02:22:43;17.90;2.40
1680;DHT22;838;51.794;12.258;2022-07-29T02:25:11;17.90;1.50
1680;DHT22;838;51.794;12.258;2022-07-29T02:27:38;18.00;1.60
1680;DHT22;838;51.794;12.258;2022-07-29T02:30:06;18.10;2.30
1680;DHT22;838;51.794;12.258;2022-07-29T02:32:34;18.10;3.20
1680;DHT22;838;51.794;12.258;2022-07-29T02:35:01;18.00;3.50
1680;DHT22;838;51.794;12.258;2022-07-29T02:37:27;18.00;2.60
1680;DHT22;838;51.794;12.258;2022-07-29T02:39:55;17.80;6.10
1680;DHT22;838;51.794;12.258;2022-07-29T02:42:23;17.60;5.00
1680;DHT22;838;51.794;12.258;2022-07-29T02:44:50;17.30;5.20
1680;DHT22;838;51.794;12.258;2022-07-29T02:47:20;17.40;5.80
1680;DHT22;838;51.794;12.258;2022-07-29T02:52:56;17.40;3.80
1680;DHT22;838;51.794;12.258;2022-07-29T02:55:43;17.40;4.90
1680;DHT22;838;51.794;12.258;2022-07-29T03:00:38;17.50;3.30
1680;DHT22;838;51.794;12.258;2022-07-29T03:03:08;17.40;4.30
1680;DHT22;838;51.794;12.258;2022-07-29T03:05:40;17.50;4.10
1680;DHT22;838;51.794;12.258;2022-07-29T03:08:07;17.60;4.90
1680;DHT22;838;51.794;12.258;2022-07-29T03:10:34;17.80;3.20
1680;DHT22;838;51.794;12.258;2022-07-29T03:13:00;17.80;3.10
1680;DHT22;838;51.794;12.258;2022-07-29T03:15:27;17.60;2.70
1680;DHT22;838;51.794;12.258;2022-07-29T03:17:53;17.80;3.20
1680;DHT22;838;51.794;12.258;2022-07-29T03:20:21;17.90;3.60
1680;DHT22;838;51.794;12.258;2022-07-29T03:22:47;17.90;2.50
1680;DHT22;838;51.794;12.258;2022-07-29T03:25:15;17.70;1.70
1680;DHT22;838;51.794;12.258;2022-07-29T03:27:42;17.70;2.60
1680;DHT22;838;51.794;12.258;2022-07-29T03:30:08;17.80;2.70
1680;DHT22;838;51.794;12.258;2022-07-29T03:32:35;17.80;2.10
1680;DHT22;838;51.794;12.258;2022-07-29T03:35:01;17.90;1.50
1680;DHT22;838;51.794;12.258;2022-07-29T03:37:26;18.00;1.70
1680;DHT22;838;51.794;12.258;2022-07-29T03:39:55;18.10;1.90
1680;DHT22;838;51.794;12.258;2022-07-29T03:42:23;18.00;2.70
1680;DHT22;838;51.794;12.258;2022-07-29T03:44:50;18.10;2.60
1680;DHT22;838;51.794;12.258;2022-07-29T03:47:19;18.20;3.10
1680;DHT22;838;51.794;12.258;2022-07-29T03:49:49;18.30;2.50
1680;DHT22;838;51.794;12.258;2022-07-29T03:52:16;18.40;1.70
1680;DHT22;838;51.794;12.258;2022-07-29T03:54:42;18.20;1.00
1680;DHT22;838;51.794;12.258;2022-07-29T03:57:10;18.20;1.00
1680;DHT22;838;51.794;12.258;2022-07-29T03:59:36;18.20;1.80
1680;DHT22;838;51.794;12.258;2022-07-29T04:02:04;18.40;1.80
1680;DHT22;838;51.794;12.258;2022-07-29T04:04:39;18.50;1.60
1680;DHT22;838;51.794;12.258;2022-07-29T04:07:05;18.60;1.00
1680;DHT22;838;51.794;12.258;2022-07-29T04:09:31;18.60;1.00
1680;DHT22;838;51.794;12.258;2022-07-29T04:11:57;18.50;2.30
1680;DHT22;838;51.794;12.258;2022-07-29T04:14:22;18.40;2.50
1680;DHT22;838;51.794;12.258;2022-07-29T04:16:48;18.40;2.50
1680;DHT22;838;51.794;12.258;2022-07-29T04:19:14;18.50;2.50
1680;DHT22;838;51.794;12.258;2022-07-29T04:21:40;18.60;1.70
1680;DHT22;838;51.794;12.258;2022-07-29T04:24:07;18.60;1.00
1680;DHT22;838;51.794;12.258;2022-07-29T04:26:33;18.40;2.20
1680;DHT22;838;51.794;12.258;2022-07-29T04:29:00;18.20;2.30
1680;DHT22;838;51.794;12.258;2022-07-29T04:31:26;18.10;2.70
1680;DHT22;838;51.794;12.258;2022-07-29T04:33:52;18.10;2.60
1680;DHT22;838;51.794;12.258;2022-07-29T04:36:18;18.20;2.00
1680;DHT22;838;51.794;12.258;2022-07-29T04:38:43;18.30;1.40
1680;DHT22;838;51.794;12.258;2022-07-29T04:41:09;18.40;1.00
1680;DHT22;838;51.794;12.258;2022-07-29T04:43:35;18.50;3.10
1680;DHT22;838;51.794;12.258;2022-07-29T04:46:01;18.50;2.50
1680;DHT22;838;51.794;12.258;2022-07-29T04:48:27;18.60;2.80
1680;DHT22;838;51.794;12.258;2022-07-29T04:50:53;18.80;1.70
1680;DHT22;838;51.794;12.258;2022-07-29T04:53:19;19.00;1.00
1680;DHT22;838;51.794;12.258;2022-07-29T04:55:44;19.00;1.00
1680;DHT22;838;51.794;12.258;2022-07-29T04:58:11;19.10;1.00
1680;DHT22;838;51.794;12.258;2022-07-29T05:00:36;19.20;1.00
1680;DHT22;838;51.794;12.258;2022-07-29T05:03:03;19.10;2.40
1680;DHT22;838;51.794;12.258;2022-07-29T05:05:29;19.10;1.10
1680;DHT22;838;51.794;12.258;2022-07-29T05:07:54;18.80;1.30
1680;DHT22;838;51.794;12.258;2022-07-29T05:10:20;18.80;2.20
1680;DHT22;838;51.794;12.258;2022-07-29T05:12:46;19.10;1.70
1680;DHT22;838;51.794;12.258;2022-07-29T05:15:12;19.20;1.40
1680;DHT22;838;51.794;12.258;2022-07-29T05:17:38;19.30;2.50
1680;DHT22;838;51.794;12.258;2022-07-29T05:20:05;19.50;2.40
1680;DHT22;838;51.794;12.258;2022-07-29T05:22:31;19.60;1.20
1680;DHT22;838;51.794;12.258;2022-07-29T05:24:57;19.80;1.00
1680;DHT22;838;51.794;12.258;2022-07-29T05:27:23;20.00;1.00
1680;DHT22;838;51.794;12.258;2022-07-29T05:29:48;20.10;1.00
1680;DHT22;838;51.794;12.258;2022-07-29T05:32:14;20.20;1.00
1680;DHT22;838;51.794;12.258;2022-07-29T05:34:41;20.30;1.00
1680;DHT22;838;51.794;12.258;2022-07-29T05:37:06;20.20;1.00
1680;DHT22;838;51.794;12.258;2022-07-29T05:39:32;20.20;1.00
1680;DHT22;838;51.794;12.258;2022-07-29T05:41:58;20.30;1.00
1680;DHT22;838;51.794;12.258;2022-07-29T05:44:23;20.50;1.00
1680;DHT22;838;51.794;12.258;2022-07-29T05:46:49;20.70;1.00
1680;DHT22;838;51.794;12.258;2022-07-29T05:49:15;20.40;1.00
1680;DHT22;838;51.794;12.258;2022-07-29T05:51:40;20.20;1.00
1680;DHT22;838;51.794;12.258;2022-07-29T05:54:06;20.10;1.00
1680;DHT22;838;51.794;12.258;2022-07-29T05:56:32;20.10;1.00
1680;DHT22;838;51.794;12.258;2022-07-29T05:58:57;19.90;1.00
1680;DHT22;838;51.794;12.258;2022-07-29T06:01:23;19.70;1.00
1680;DHT22;838;51.794;12.258;2022-07-29T06:03:49;19.70;1.00
1680;DHT22;838;51.794;12.258;2022-07-29T06:06:15;19.80;1.00
1680;DHT22;838;51.794;12.258;2022-07-29T06:08:41;19.80;1.00
1680;DHT22;838;51.794;12.258;2022-07-29T06:11:06;19.70;1.00
1680;DHT22;838;51.794;12.258;2022-07-29T06:13:34;19.70;1.00
1680;DHT22;838;51.794;12.258;2022-07-29T06:16:00;19.80;1.00
1680;DHT22;838;51.794;12.258;2022-07-29T06:18:26;19.90;1.00
1680;DHT22;838;51.794;12.258;2022-07-29T06:20:52;20.10;1.00
1680;DHT22;838;51.794;12.258;2022-07-29T06:23:19;20.20;1.00
1680;DHT22;838;51.794;12.258;2022-07-29T06:25:45;20.50;1.00
1680;DHT22;838;51.794;12.258;2022-07-29T06:28:11;20.60;1.00
1680;DHT22;838;51.794;12.258;2022-07-29T06:30:37;20.60;1.00
1680;DHT22;838;51.794;12.258;2022-07-29T06:33:03;20.70;1.00
1680;DHT22;838;51.794;12.258;2022-07-29T06:35:29;20.60;1.00
1680;DHT22;838;51.794;12.258;2022-07-29T06:37:55;20.90;1.00
1680;DHT22;838;51.794;12.258;2022-07-29T06:40:20;21.10;1.00
1680;DHT22;838;51.794;12.258;2022-07-29T06:43:04;21.20;1.00
1680;DHT22;838;51.794;12.258;2022-07-29T06:45:33;21.30;1.00
1680;DHT22;838;51.794;12.258;2022-07-29T06:47:59;21.40;1.00
1680;DHT22;838;51.794;12.258;2022-07-29T06:50:25;21.50;1.00
1680;DHT22;838;51.794;12.258;2022-07-29T06:52:51;21.60;1.00
1680;DHT22;838;51.794;12.258;2022-07-29T06:55:17;21.80;1.00
1680;DHT22;838;51.794;12.258;2022-07-29T06:57:45;22.10;1.00
1680;DHT22;838;51.794;12.258;2022-07-29T07:00:12;22.20;1.00
1680;DHT22;838;51.794;12.258;2022-07-29T07:02:38;22.30;1.00
1680;DHT22;838;51.794;12.258;2022-07-29T07:05:04;22.20;1.00
1680;DHT22;838;51.794;12.258;2022-07-29T07:07:31;22.00;1.00
1680;DHT22;838;51.794;12.258;2022-07-29T07:09:56;22.00;1.00
1680;DHT22;838;51.794;12.258;2022-07-29T07:12:22;22.20;1.00
1680;DHT22;838;51.794;12.258;2022-07-29T07:14:48;22.40;1.00
1680;DHT22;838;51.794;12.258;2022-07-29T07:17:14;22.60;1.00
1680;DHT22;838;51.794;12.258;2022-07-29T07:19:40;22.70;1.00
1680;DHT22;838;51.794;12.258;2022-07-29T07:22:06;23.00;1.00
1680;DHT22;838;51.794;12.258;2022-07-29T07:24:31;23.30;1.00
1680;DHT22;838;51.794;12.258;2022-07-29T07:26:57;23.50;1.00
1680;DHT22;838;51.794;12.258;2022-07-29T07:29:23;23.70;1.00
1680;DHT22;838;51.794;12.258;2022-07-29T07:31:49;23.80;1.00
1680;DHT22;838;51.794;12.258;2022-07-29T07:34:14;24.10;1.00
1680;DHT22;838;51.794;12.258;2022-07-29T07:36:40;24.30;1.00
1680;DHT22;838;51.794;12.258;2022-07-29T07:39:06;24.30;1.00
1680;DHT22;838;51.794;12.258;2022-07-29T07:41:32;24.10;1.00
1680;DHT22;838;51.794;12.258;2022-07-29T07:43:58;23.80;1.00
1680;DHT22;838;51.794;12.258;2022-07-29T07:46:24;23.60;1.00
1680;DHT22;838;51.794;12.258;2022-07-29T07:48:49;23.30;1.00
1680;DHT22;838;51.794;12.258;2022-07-29T07:51:17;23.10;1.00
1680;DHT22;838;51.794;12.258;2022-07-29T07:53:43;23.10;1.00
1680;DHT22;838;51.794;12.258;2022-07-29T07:56:10;23.10;1.00
1680;DHT22;838;51.794;12.258;2022-07-29T07:58:36;23.30;1.00
1680;DHT22;838;51.794;12.258;2022-07-29T08:01:02;23.60;1.00
1680;DHT22;838;51.794;12.258;2022-07-29T08:03:27;23.70;1.00
1680;DHT22;838;51.794;12.258;2022-07-29T08:05:53;24.10;1.00
1680;DHT22;838;51.794;12.258;2022-07-29T08:08:20;24.60;1.00
1680;DHT22;838;51.794;12.258;2022-07-29T08:10:46;24.80;1.00
1680;DHT22;838;51.794;12.258;2022-07-29T08:13:19;24.80;1.00
1680;DHT22;838;51.794;12.258;2022-07-29T08:15:45;25.00;1.00
1680;DHT22;838;51.794;12.258;2022-07-29T08:18:12;25.20;1.00
1680;DHT22;838;51.794;12.258;2022-07-29T08:20:40;25.40;1.00
1680;DHT22;838;51.794;12.258;2022-07-29T08:23:07;25.60;1.00
1680;DHT22;838;51.794;12.258;2022-07-29T08:25:39;26.10;1.00
1680;DHT22;838;51.794;12.258;2022-07-29T08:28:05;25.20;1.00
1680;DHT22;838;51.794;12.258;2022-07-29T08:30:31;24.80;1.00
1680;DHT22;838;51.794;12.258;2022-07-29T08:32:58;24.40;1.00
1680;DHT22;838;51.794;12.258;2022-07-29T08:35:24;24.60;1.00
1680;DHT22;838;51.794;12.258;2022-07-29T08:37:51;24.80;1.00
1680;DHT22;838;51.794;12.258;2022-07-29T08:40:17;25.10;1.00
1680;DHT22;838;51.794;12.258;2022-07-29T08:42:43;25.60;1.00
1680;DHT22;838;51.794;12.258;2022-07-29T08:45:10;26.10;1.00
1680;DHT22;838;51.794;12.258;2022-07-29T08:47:36;27.00;1.00
1680;DHT22;838;51.794;12.258;2022-07-29T08:50:05;28.40;1.00
1680;DHT22;838;51.794;12.258;2022-07-29T08:52:33;29.90;1.00
1680;DHT22;838;51.794;12.258;2022-07-29T08:55:01;30.80;1.00
1680;DHT22;838;51.794;12.258;2022-07-29T08:57:28;30.40;1.00
1680;DHT22;838;51.794;12.258;2022-07-29T08:59:54;30.40;1.00
1680;DHT22;838;51.794;12.258;2022-07-29T09:02:23;30.00;1.00
1680;DHT22;838;51.794;12.258;2022-07-29T09:04:51;30.10;1.00
1680;DHT22;838;51.794;12.258;2022-07-29T09:07:18;30.40;1.00
1680;DHT22;838;51.794;12.258;2022-07-29T09:09:45;30.50;1.00
1680;DHT22;838;51.794;12.258;2022-07-29T09:12:11;30.90;1.00
1680;DHT22;838;51.794;12.258;2022-07-29T09:14:38;31.70;1.00
1680;DHT22;838;51.794;12.258;2022-07-29T09:17:04;32.00;1.00
1680;DHT22;838;51.794;12.258;2022-07-29T09:19:32;31.90;1.00
1680;DHT22;838;51.794;12.258;2022-07-29T09:22:00;32.60;1.00
1680;DHT22;838;51.794;12.258;2022-07-29T09:24:38;32.60;1.00
1680;DHT22;838;51.794;12.258;2022-07-29T09:27:19;33.50;1.00
1680;DHT22;838;51.794;12.258;2022-07-29T09:29:46;34.50;1.00
1680;DHT22;838;51.794;12.258;2022-07-29T09:32:12;35.10;1.00
1680;DHT22;838;51.794;12.258;2022-07-29T09:34:38;33.50;1.00
1680;DHT22;838;51.794;12.258;2022-07-29T09:37:04;34.20;1.00
1680;DHT22;838;51.794;12.258;2022-07-29T09:39:38;35.20;1.00
1680;DHT22;838;51.794;12.258;2022-07-29T09:42:11;36.20;1.00
1680;DHT22;838;51.794;12.258;2022-07-29T09:47:07;36.80;1.00
1680;DHT22;838;51.794;12.258;2022-07-29T09:49:35;37.70;1.00
1680;DHT22;838;51.794;12.258;2022-07-29T09:52:04;37.70;1.00
1680;DHT22;838;51.794;12.258;2022-07-29T09:54:37;37.50;1.00
1680;DHT22;838;51.794;12.258;2022-07-29T09:57:07;38.30;1.00
1680;DHT22;838;51.794;12.258;2022-07-29T09:59:37;38.50;1.00
1680;DHT22;838;51.794;12.258;2022-07-29T10:02:12;38.50;1.00
1680;DHT22;838;51.794;12.258;2022-07-29T10:04:41;38.50;1.00
1680;DHT22;838;51.794;12.258;2022-07-29T10:07:07;36.10;1.00
1680;DHT22;838;51.794;12.258;2022-07-29T10:09:33;34.40;1.00
1680;DHT22;838;51.794;12.258;2022-07-29T10:12:12;33.20;1.00
1680;DHT22;838;51.794;12.258;2022-07-29T10:14:42;31.80;1.00
1680;DHT22;838;51.794;12.258;2022-07-29T10:17:09;31.40;1.00
1680;DHT22;838;51.794;12.258;2022-07-29T10:19:37;30.80;1.00
1680;DHT22;838;51.794;12.258;2022-07-29T10:22:06;30.30;1.00
1680;DHT22;838;51.794;12.258;2022-07-29T10:24:33;30.00;1.00
1680;DHT22;838;51.794;12.258;2022-07-29T10:27:00;29.90;1.00
1680;DHT22;838;51.794;12.258;2022-07-29T10:29:27;29.50;1.00
1680;DHT22;838;51.794;12.258;2022-07-29T10:43:29;28.50;1.00
1680;DHT22;838;51.794;12.258;2022-07-29T10:45:59;28.50;1.00
1680;DHT22;838;51.794;12.258;2022-07-29T10:48:25;28.30;1.00
1680;DHT22;838;51.794;12.258;2022-07-29T10:50:59;28.10;1.00
1680;DHT22;838;51.794;12.258;2022-07-29T10:56:24;28.30;1.00
1680;DHT22;838;51.794;12.258;2022-07-29T11:01:43;28.60;1.00
1680;DHT22;838;51.794;12.258;2022-07-29T11:04:09;28.90;1.00
1680;DHT22;838;51.794;12.258;2022-07-29T11:07:06;29.10;1.00
1680;DHT22;838;51.794;12.258;2022-07-29T11:09:33;29.00;1.00
1680;DHT22;838;51.794;12.258;2022-07-29T11:11:59;28.80;1.00
1680;DHT22;838;51.794;12.258;2022-07-29T11:17:20;29.10;1.00
1680;DHT22;838;51.794;12.258;2022-07-29T11:19:45;29.20;1.00
1680;DHT22;838;51.794;12.258;2022-07-29T11:22:34;29.60;1.00
1680;DHT22;838;51.794;12.258;2022-07-29T11:25:18;29.70;1.00
1680;DHT22;838;51.794;12.258;2022-07-29T11:27:45;29.80;1.00
1680;DHT22;838;51.794;12.258;2022-07-29T11:30:11;29.80;1.00
1680;DHT22;838;51.794;12.258;2022-07-29T11:32:42;29.70;1.00
1680;DHT22;838;51.794;12.258;2022-07-29T11:35:20;29.40;1.00
1680;DHT22;838;51.794;12.258;2022-07-29T11:46:42;29.80;1.00
1680;DHT22;838;51.794;12.258;2022-07-29T11:49:04;29.90;1.00
1680;DHT22;838;51.794;12.258;2022-07-29T11:51:31;30.10;1.00
1680;DHT22;838;51.794;12.258;2022-07-29T11:53:57;30.20;1.00
1680;DHT22;838;51.794;12.258;2022-07-29T11:56:23;29.90;1.00
1680;DHT22;838;51.794;12.258;2022-07-29T11:59:04;30.00;1.00
1680;DHT22;838;51.794;12.258;2022-07-29T12:01:30;30.30;1.00
1680;DHT22;838;51.794;12.258;2022-07-29T12:04:06;30.30;1.00
1680;DHT22;838;51.794;12.258;2022-07-29T12:06:35;30.60;1.00
1680;DHT22;838;51.794;12.258;2022-07-29T12:09:07;30.40;1.00
1680;DHT22;838;51.794;12.258;2022-07-29T12:11:33;30.20;1.00
1680;DHT22;838;51.794;12.258;2022-07-29T12:13:59;30.20;1.00
1680;DHT22;838;51.794;12.258;2022-07-29T12:16:34;30.40;1.00
1680;DHT22;838;51.794;12.258;2022-07-29T12:19:01;30.70;1.00
1680;DHT22;838;51.794;12.258;2022-07-29T12:21:46;30.80;1.00
1680;DHT22;838;51.794;12.258;2022-07-29T12:24:12;30.80;1.00
1680;DHT22;838;51.794;12.258;2022-07-29T12:26:49;30.80;1.00
1680;DHT22;838;51.794;12.258;2022-07-29T12:29:16;30.60;1.00
1680;DHT22;838;51.794;12.258;2022-07-29T12:31:42;30.30;1.00
1680;DHT22;838;51.794;12.258;2022-07-29T12:34:13;30.20;1.00
1680;DHT22;838;51.794;12.258;2022-07-29T12:36:42;30.30;1.00
1680;DHT22;838;51.794;12.258;2022-07-29T12:39:08;30.60;1.00
1680;DHT22;838;51.794;12.258;2022-07-29T12:41:35;30.90;1.00
1680;DHT22;838;51.794;12.258;2022-07-29T12:44:01;30.50;1.00
1680;DHT22;838;51.794;12.258;2022-07-29T12:46:27;30.20;1.00
1680;DHT22;838;51.794;12.258;2022-07-29T12:48:54;30.10;1.00
1680;DHT22;838;51.794;12.258;2022-07-29T12:51:40;30.20;1.00
1680;DHT22;838;51.794;12.258;2022-07-29T12:54:11;30.70;1.00
1680;DHT22;838;51.794;12.258;2022-07-29T12:56:37;30.70;1.00
1680;DHT22;838;51.794;12.258;2022-07-29T12:59:21;30.90;1.00
1680;DHT22;838;51.794;12.258;2022-07-29T13:01:49;31.00;1.00
1680;DHT22;838;51.794;12.258;2022-07-29T13:04:32;31.10;1.00
1680;DHT22;838;51.794;12.258;2022-07-29T13:09:40;31.00;1.00
1680;DHT22;838;51.794;12.258;2022-07-29T13:12:08;30.80;1.00
1680;DHT22;838;51.794;12.258;2022-07-29T13:14:43;30.90;1.00
1680;DHT22;838;51.794;12.258;2022-07-29T13:17:14;31.20;1.00
1680;DHT22;838;51.794;12.258;2022-07-29T13:19:45;31.50;1.00
1680;DHT22;838;51.794;12.258;2022-07-29T13:22:13;31.50;1.00
1680;DHT22;838;51.794;12.258;2022-07-29T13:27:14;31.00;1.00
1680;DHT22;838;51.794;12.258;2022-07-29T13:29:40;30.90;1.00
1680;DHT22;838;51.794;12.258;2022-07-29T13:32:06;31.20;1.00
1680;DHT22;838;51.794;12.258;2022-07-29T13:34:32;31.10;1.00
1680;DHT22;838;51.794;12.258;2022-07-29T13:36:58;31.10;1.00
1680;DHT22;838;51.794;12.258;2022-07-29T13:39:24;30.90;1.00
1680;DHT22;838;51.794;12.258;2022-07-29T13:41:49;30.90;1.00
1680;DHT22;838;51.794;12.258;2022-07-29T13:44:19;30.80;1.00
1680;DHT22;838;51.794;12.258;2022-07-29T13:46:53;30.80;1.00
1680;DHT22;838;51.794;12.258;2022-07-29T13:49:19;31.20;1.00
1680;DHT22;838;51.794;12.258;2022-07-29T13:51:45;31.50;1.00
1680;DHT22;838;51.794;12.258;2022-07-29T13:54:11;31.80;1.00
1680;DHT22;838;51.794;12.258;2022-07-29T13:56:37;31.80;1.00
1680;DHT22;838;51.794;12.258;2022-07-29T13:59:02;31.70;1.00
1680;DHT22;838;51.794;12.258;2022-07-29T14:01:28;31.60;1.00
1680;DHT22;838;51.794;12.258;2022-07-29T14:03:55;31.80;1.00
1680;DHT22;838;51.794;12.258;2022-07-29T14:06:23;32.00;1.00
1680;DHT22;838;51.794;12.258;2022-07-29T14:08:49;31.80;1.00
1680;DHT22;838;51.794;12.258;2022-07-29T14:11:15;31.60;1.00
1680;DHT22;838;51.794;12.258;2022-07-29T14:13:41;31.50;1.00
1680;DHT22;838;51.794;12.258;2022-07-29T14:16:06;31.80;1.00
1680;DHT22;838;51.794;12.258;2022-07-29T14:18:38;31.90;1.00
1680;DHT22;838;51.794;12.258;2022-07-29T14:21:04;32.30;1.00
1680;DHT22;838;51.794;12.258;2022-07-29T14:23:30;32.70;1.00
1680;DHT22;838;51.794;12.258;2022-07-29T14:25:55;32.90;1.00
1680;DHT22;838;51.794;12.258;2022-07-29T14:28:27;33.00;1.00
1680;DHT22;838;51.794;12.258;2022-07-29T14:30:52;32.80;1.00
1680;DHT22;838;51.794;12.258;2022-07-29T14:33:18;32.50;1.00
1680;DHT22;838;51.794;12.258;2022-07-29T14:35:44;32.00;1.00
1680;DHT22;838;51.794;12.258;2022-07-29T14:38:10;31.40;1.00
1680;DHT22;838;51.794;12.258;2022-07-29T14:40:35;31.50;1.00
1680;DHT22;838;51.794;12.258;2022-07-29T14:43:02;31.60;1.00
1680;DHT22;838;51.794;12.258;2022-07-29T14:45:28;31.60;1.00
1680;DHT22;838;51.794;12.258;2022-07-29T14:47:54;31.50;1.00
1680;DHT22;838;51.794;12.258;2022-07-29T14:50:20;31.70;1.00
1680;DHT22;838;51.794;12.258;2022-07-29T14:52:46;31.90;1.00
1680;DHT22;838;51.794;12.258;2022-07-29T14:55:12;32.20;1.00
1680;DHT22;838;51.794;12.258;2022-07-29T14:57:37;32.40;1.00
1680;DHT22;838;51.794;12.258;2022-07-29T15:00:05;32.30;1.00
1680;DHT22;838;51.794;12.258;2022-07-29T15:02:32;32.50;1.00
1680;DHT22;838;51.794;12.258;2022-07-29T15:04:58;32.60;1.00
1680;DHT22;838;51.794;12.258;2022-07-29T15:07:24;32.80;1.00
1680;DHT22;838;51.794;12.258;2022-07-29T15:09:50;33.00;1.00
1680;DHT22;838;51.794;12.258;2022-07-29T15:12:15;32.50;1.00
1680;DHT22;838;51.794;12.258;2022-07-29T15:14:44;32.20;1.00
1680;DHT22;838;51.794;12.258;2022-07-29T15:17:13;32.50;1.00
1680;DHT22;838;51.794;12.258;2022-07-29T15:19:39;32.70;1.00
1680;DHT22;838;51.794;12.258;2022-07-29T15:22:05;32.70;1.00
1680;DHT22;838;51.794;12.258;2022-07-29T15:24:31;32.20;1.00
1680;DHT22;838;51.794;12.258;2022-07-29T15:26:57;32.30;1.00
1680;DHT22;838;51.794;12.258;2022-07-29T15:29:22;32.10;1.00
1680;DHT22;838;51.794;12.258;2022-07-29T15:31:48;32.00;1.00
1680;DHT22;838;51.794;12.258;2022-07-29T15:34:14;32.20;1.00
1680;DHT22;838;51.794;12.258;2022-07-29T15:36:40;32.10;1.00
1680;DHT22;838;51.794;12.258;2022-07-29T15:39:06;31.90;1.00
1680;DHT22;838;51.794;12.258;2022-07-29T15:41:32;32.00;1.00
1680;DHT22;838;51.794;12.258;2022-07-29T15:43:59;32.40;1.00
1680;DHT22;838;51.794;12.258;2022-07-29T15:46:24;32.60;1.00
1680;DHT22;838;51.794;12.258;2022-07-29T15:49:09;32.40;1.00
1680;DHT22;838;51.794;12.258;2022-07-29T15:51:34;32.30;1.00
1680;DHT22;838;51.794;12.258;2022-07-29T15:54:01;32.20;1.00
1680;DHT22;838;51.794;12.258;2022-07-29T15:56:28;31.80;1.00
1680;DHT22;838;51.794;12.258;2022-07-29T15:58:54;31.10;1.00
1680;DHT22;838;51.794;12.258;2022-07-29T16:01:19;31.10;1.00
1680;DHT22;838;51.794;12.258;2022-07-29T16:03:45;30.80;1.00
1680;DHT22;838;51.794;12.258;2022-07-29T16:06:17;30.60;1.00
1680;DHT22;838;51.794;12.258;2022-07-29T16:08:43;30.50;1.00
1680;DHT22;838;51.794;12.258;2022-07-29T16:11:09;30.70;1.00
1680;DHT22;838;51.794;12.258;2022-07-29T16:13:35;30.80;1.00
1680;DHT22;838;51.794;12.258;2022-07-29T16:16:00;30.80;1.00
1680;DHT22;838;51.794;12.258;2022-07-29T16:18:26;30.50;1.00
1680;DHT22;838;51.794;12.258;2022-07-29T16:20:52;30.20;1.00
1680;DHT22;838;51.794;12.258;2022-07-29T16:23:17;30.10;1.00
1680;DHT22;838;51.794;12.258;2022-07-29T16:25:43;30.30;1.00
1680;DHT22;838;51.794;12.258;2022-07-29T16:28:09;30.40;1.00
1680;DHT22;838;51.794;12.258;2022-07-29T16:30:35;30.60;1.00
1680;DHT22;838;51.794;12.258;2022-07-29T16:33:01;30.60;1.00
1680;DHT22;838;51.794;12.258;2022-07-29T16:35:28;30.40;1.00
1680;DHT22;838;51.794;12.258;2022-07-29T16:37:55;30.30;1.00
1680;DHT22;838;51.794;12.258;2022-07-29T16:40:21;30.10;1.00
1680;DHT22;838;51.794;12.258;2022-07-29T16:42:47;30.00;1.00
1680;DHT22;838;51.794;12.258;2022-07-29T16:45:13;29.80;1.00
1680;DHT22;838;51.794;12.258;2022-07-29T16:47:39;29.60;1.00
1680;DHT22;838;51.794;12.258;2022-07-29T16:50:06;29.60;1.00
1680;DHT22;838;51.794;12.258;2022-07-29T16:52:32;29.60;1.00
1680;DHT22;838;51.794;12.258;2022-07-29T16:54:58;29.40;1.00
1680;DHT22;838;51.794;12.258;2022-07-29T16:57:23;29.40;1.00
1680;DHT22;838;51.794;12.258;2022-07-29T16:59:50;29.50;1.00
1680;DHT22;838;51.794;12.258;2022-07-29T17:02:16;29.30;1.00
1680;DHT22;838;51.794;12.258;2022-07-29T17:04:41;29.20;1.00
1680;DHT22;838;51.794;12.258;2022-07-29T17:07:07;29.00;1.00
1680;DHT22;838;51.794;12.258;2022-07-29T17:09:33;29.00;1.00
1680;DHT22;838;51.794;12.258;2022-07-29T17:11:59;29.10;1.00